sensor_id;sensor_type;location;lat;lon;timestamp;temperature;humidity
18085;DHT22;9169;44.492;11.372;2022-10-16T00:01:53;22.50;51.70
18085;DHT22;9169;44.492;11.372;2022-10-16T00:04:19;22.50;51.60
18085;DHT22;9169;44.492;11.372;2022-10-16T00:06:46;22.50;51.60
18085;DHT22;9169;44.492;11.372;2022-10-16T00:09:13;22.50;51.60
18085;DHT22;9169;44.492;11.372;2022-10-16T00:11:42;22.50;51.70
18085;DHT22;9169;44.492;11.372;2022-10-16T00:14:11;22.50;51.60
18085;DHT22;9169;44.492;11.372;2022-10-16T00:16:38;22.50;51.50
18085;DHT22;9169;44.492;11.372;2022-10-16T00:19:05;22.50;51.50
18085;DHT22;9169;44.492;11.372;2022-10-16T00:21:33;22.50;51.50
18085;DHT22;9169;44.492;11.372;2022-10-16T00:24:02;22.50;51.50
18085;DHT22;9169;44.492;11.372;2022-10-16T00:26:31;22.50;51.60
18085;DHT22;9169;44.492;11.372;2022-10-16T00:28:59;22.50;51.60
18085;DHT22;9169;44.492;11.372;2022-10-16T00:31:27;22.50;51.70
18085;DHT22;9169;44.492;11.372;2022-10-16T00:33:54;22.50;51.70
18085;DHT22;9169;44.492;11.372;2022-10-16T00:36:22;22.50;51.60
18085;DHT22;9169;44.492;11.372;2022-10-16T00:38:50;22.50;51.70
18085;DHT22;9169;44.492;11.372;2022-10-16T00:41:20;22.50;51.70
18085;DHT22;9169;44.492;11.372;2022-10-16T00:43:49;22.50;51.60
18085;DHT22;9169;44.492;11.372;2022-10-16T00:46:20;22.50;51.60
18085;DHT22;9169;44.492;11.372;2022-10-16T00:48:53;22.40;51.60
18085;DHT22;9169;44.492;11.372;2022-10-16T00:51:24;22.40;51.70
18085;DHT22;9169;44.492;11.372;2022-10-16T00:53:52;22.40;51.80
18085;DHT22;9169;44.492;11.372;2022-10-16T00:56:19;22.40;51.70
18085;DHT22;9169;44.492;11.372;2022-10-16T00:58:48;22.40;51.80
18085;DHT22;9169;44.492;11.372;2022-10-16T01:01:20;22.40;51.70
18085;DHT22;9169;44.492;11.372;2022-10-16T01:03:47;22.40;51.80
18085;DHT22;9169;44.492;11.372;2022-10-16T01:06:21;22.40;51.70
18085;DHT22;9169;44.492;11.372;2022-10-16T01:09:04;22.40;51.80
18085;DHT22;9169;44.492;11.372;2022-10-16T01:11:38;22.40;51.70
18085;DHT22;9169;44.492;11.372;2022-10-16T01:14:13;22.40;51.80
18085;DHT22;9169;44.492;11.372;2022-10-16T01:16:46;22.40;51.80
18085;DHT22;9169;44.492;11.372;2022-10-16T01:19:20;22.40;51.80
18085;DHT22;9169;44.492;11.372;2022-10-16T01:21:53;22.40;51.90
18085;DHT22;9169;44.492;11.372;2022-10-16T01:24:31;22.40;51.80
18085;DHT22;9169;44.492;11.372;2022-10-16T01:27:12;22.30;51.90
18085;DHT22;9169;44.492;11.372;2022-10-16T01:29:45;22.30;51.90
18085;DHT22;9169;44.492;11.372;2022-10-16T01:32:22;22.30;51.90
18085;DHT22;9169;44.492;11.372;2022-10-16T01:34:52;22.20;51.90
18085;DHT22;9169;44.492;11.372;2022-10-16T01:37:38;22.20;51.90
18085;DHT22;9169;44.492;11.372;2022-10-16T01:40:09;22.20;51.90
18085;DHT22;9169;44.492;11.372;2022-10-16T01:42:41;22.20;51.90
18085;DHT22;9169;44.492;11.372;2022-10-16T01:45:11;22.20;51.90
18085;DHT22;9169;44.492;11.372;2022-10-16T01:47:40;22.20;51.90
18085;DHT22;9169;44.492;11.372;2022-10-16T01:50:09;22.20;52.00
18085;DHT22;9169;44.492;11.372;2022-10-16T01:52:39;22.20;52.00
18085;DHT22;9169;44.492;11.372;2022-10-16T01:55:09;22.20;52.00
18085;DHT22;9169;44.492;11.372;2022-10-16T01:57:39;22.20;52.00
18085;DHT22;9169;44.492;11.372;2022-10-16T02:00:11;22.10;51.90
18085;DHT22;9169;44.492;11.372;2022-10-16T02:02:40;22.10;51.90
18085;DHT22;9169;44.492;11.372;2022-10-16T02:05:12;22.20;51.90
18085;DHT22;9169;44.492;11.372;2022-10-16T02:07:42;22.10;52.00
18085;DHT22;9169;44.492;11.372;2022-10-16T02:10:09;22.10;52.00
18085;DHT22;9169;44.492;11.372;2022-10-16T02:12:40;22.10;52.00
18085;DHT22;9169;44.492;11.372;2022-10-16T02:15:10;22.10;52.10
18085;DHT22;9169;44.492;11.372;2022-10-16T02:17:37;22.10;52.10
18085;DHT22;9169;44.492;11.372;2022-10-16T02:20:05;22.10;52.20
18085;DHT22;9169;44.492;11.372;2022-10-16T02:22:35;22.10;52.20
18085;DHT22;9169;44.492;11.372;2022-10-16T02:25:06;22.00;52.10
18085;DHT22;9169;44.492;11.372;2022-10-16T02:27:43;22.00;52.00
18085;DHT22;9169;44.492;11.372;2022-10-16T02:30:13;22.00;52.00
18085;DHT22;9169;44.492;11.372;2022-10-16T02:32:43;22.00;52.00
18085;DHT22;9169;44.492;11.372;2022-10-16T02:35:11;22.00;52.00
18085;DHT22;9169;44.492;11.372;2022-10-16T02:37:38;22.00;52.00
18085;DHT22;9169;44.492;11.372;2022-10-16T02:40:08;22.00;52.10
18085;DHT22;9169;44.492;11.372;2022-10-16T02:42:36;22.00;52.10
18085;DHT22;9169;44.492;11.372;2022-10-16T02:45:06;22.00;52.10
18085;DHT22;9169;44.492;11.372;2022-10-16T02:47:33;21.90;52.00
18085;DHT22;9169;44.492;11.372;2022-10-16T02:50:00;21.90;52.00
18085;DHT22;9169;44.492;11.372;2022-10-16T02:52:27;21.90;52.10
18085;DHT22;9169;44.492;11.372;2022-10-16T02:54:54;21.90;52.10
18085;DHT22;9169;44.492;11.372;2022-10-16T02:57:21;21.90;52.20
18085;DHT22;9169;44.492;11.372;2022-10-16T02:59:48;21.90;52.20
18085;DHT22;9169;44.492;11.372;2022-10-16T03:05:01;21.80;52.20
18085;DHT22;9169;44.492;11.372;2022-10-16T03:07:28;21.80;52.20
18085;DHT22;9169;44.492;11.372;2022-10-16T03:09:55;21.80;52.20
18085;DHT22;9169;44.492;11.372;2022-10-16T03:12:22;21.80;52.30
18085;DHT22;9169;44.492;11.372;2022-10-16T03:14:50;21.80;52.30
18085;DHT22;9169;44.492;11.372;2022-10-16T03:17:18;21.70;52.30
18085;DHT22;9169;44.492;11.372;2022-10-16T03:19:45;21.70;52.40
18085;DHT22;9169;44.492;11.372;2022-10-16T03:22:12;21.70;52.50
18085;DHT22;9169;44.492;11.372;2022-10-16T03:24:39;21.70;52.60
18085;DHT22;9169;44.492;11.372;2022-10-16T03:27:06;21.60;52.40
18085;DHT22;9169;44.492;11.372;2022-10-16T03:29:33;21.60;52.50
18085;DHT22;9169;44.492;11.372;2022-10-16T03:32:00;21.60;52.60
18085;DHT22;9169;44.492;11.372;2022-10-16T03:34:28;21.50;52.60
18085;DHT22;9169;44.492;11.372;2022-10-16T03:36:55;21.50;52.70
18085;DHT22;9169;44.492;11.372;2022-10-16T03:39:22;21.50;52.70
18085;DHT22;9169;44.492;11.372;2022-10-16T03:41:49;21.50;52.80
18085;DHT22;9169;44.492;11.372;2022-10-16T03:44:16;21.40;52.80
18085;DHT22;9169;44.492;11.372;2022-10-16T03:46:43;21.40;52.80
18085;DHT22;9169;44.492;11.372;2022-10-16T03:49:11;21.40;52.70
18085;DHT22;9169;44.492;11.372;2022-10-16T03:51:39;21.40;52.70
18085;DHT22;9169;44.492;11.372;2022-10-16T03:54:06;21.40;52.70
18085;DHT22;9169;44.492;11.372;2022-10-16T03:56:33;21.40;52.60
18085;DHT22;9169;44.492;11.372;2022-10-16T03:59:00;21.40;52.60
18085;DHT22;9169;44.492;11.372;2022-10-16T04:01:27;21.40;52.60
18085;DHT22;9169;44.492;11.372;2022-10-16T04:03:54;21.40;52.60
18085;DHT22;9169;44.492;11.372;2022-10-16T04:06:21;21.40;52.60
18085;DHT22;9169;44.492;11.372;2022-10-16T04:08:50;21.40;52.60
18085;DHT22;9169;44.492;11.372;2022-10-16T04:11:17;21.40;52.70
18085;DHT22;9169;44.492;11.372;2022-10-16T04:13:44;21.40;52.60
18085;DHT22;9169;44.492;11.372;2022-10-16T04:16:11;21.40;52.60
18085;DHT22;9169;44.492;11.372;2022-10-16T04:18:37;21.40;52.60
18085;DHT22;9169;44.492;11.372;2022-10-16T04:21:05;21.30;52.60
18085;DHT22;9169;44.492;11.372;2022-10-16T04:23:33;21.30;52.60
18085;DHT22;9169;44.492;11.372;2022-10-16T04:26:01;21.30;52.60
18085;DHT22;9169;44.492;11.372;2022-10-16T04:28:28;21.30;52.70
18085;DHT22;9169;44.492;11.372;2022-10-16T04:30:55;21.20;52.70
18085;DHT22;9169;44.492;11.372;2022-10-16T04:33:22;21.20;52.70
18085;DHT22;9169;44.492;11.372;2022-10-16T04:35:57;21.20;52.90
18085;DHT22;9169;44.492;11.372;2022-10-16T04:38:24;21.20;53.00
18085;DHT22;9169;44.492;11.372;2022-10-16T04:40:51;21.10;53.40
18085;DHT22;9169;44.492;11.372;2022-10-16T04:43:20;21.10;52.80
18085;DHT22;9169;44.492;11.372;2022-10-16T04:45:47;21.10;52.90
18085;DHT22;9169;44.492;11.372;2022-10-16T04:48:16;21.10;52.90
18085;DHT22;9169;44.492;11.372;2022-10-16T04:50:43;21.10;52.90
18085;DHT22;9169;44.492;11.372;2022-10-16T04:53:10;21.10;53.00
18085;DHT22;9169;44.492;11.372;2022-10-16T04:55:37;21.10;53.00
18085;DHT22;9169;44.492;11.372;2022-10-16T04:58:04;21.10;53.00
18085;DHT22;9169;44.492;11.372;2022-10-16T05:00:32;21.10;53.00
18085;DHT22;9169;44.492;11.372;2022-10-16T05:03:00;21.00;52.90
18085;DHT22;9169;44.492;11.372;2022-10-16T05:05:27;21.00;53.50
18085;DHT22;9169;44.492;11.372;2022-10-16T05:07:54;21.00;53.00
18085;DHT22;9169;44.492;11.372;2022-10-16T05:10:21;21.00;53.00
18085;DHT22;9169;44.492;11.372;2022-10-16T05:12:48;21.00;53.00
18085;DHT22;9169;44.492;11.372;2022-10-16T05:15:15;21.00;53.00
18085;DHT22;9169;44.492;11.372;2022-10-16T05:17:43;21.00;53.00
18085;DHT22;9169;44.492;11.372;2022-10-16T05:20:10;21.00;53.00
18085;DHT22;9169;44.492;11.372;2022-10-16T05:22:38;21.00;53.00
18085;DHT22;9169;44.492;11.372;2022-10-16T05:25:05;20.90;53.00
18085;DHT22;9169;44.492;11.372;2022-10-16T05:27:32;20.90;53.50
18085;DHT22;9169;44.492;11.372;2022-10-16T05:29:59;20.90;53.00
18085;DHT22;9169;44.492;11.372;2022-10-16T05:32:26;20.90;53.10
18085;DHT22;9169;44.492;11.372;2022-10-16T05:34:54;20.90;53.10
18085;DHT22;9169;44.492;11.372;2022-10-16T05:37:21;20.90;53.30
18085;DHT22;9169;44.492;11.372;2022-10-16T05:39:48;20.90;53.40
18085;DHT22;9169;44.492;11.372;2022-10-16T05:42:15;20.80;53.30
18085;DHT22;9169;44.492;11.372;2022-10-16T05:44:42;20.80;53.40
18085;DHT22;9169;44.492;11.372;2022-10-16T05:47:09;20.80;53.40
18085;DHT22;9169;44.492;11.372;2022-10-16T05:49:37;20.80;53.40
18085;DHT22;9169;44.492;11.372;2022-10-16T05:52:05;20.80;53.40
18085;DHT22;9169;44.492;11.372;2022-10-16T05:54:32;20.80;53.40
18085;DHT22;9169;44.492;11.372;2022-10-16T05:56:59;20.80;53.40
18085;DHT22;9169;44.492;11.372;2022-10-16T05:59:27;20.80;53.40
18085;DHT22;9169;44.492;11.372;2022-10-16T06:01:54;20.70;53.50
18085;DHT22;9169;44.492;11.372;2022-10-16T06:04:21;20.70;53.50
18085;DHT22;9169;44.492;11.372;2022-10-16T06:06:48;20.80;53.60
18085;DHT22;9169;44.492;11.372;2022-10-16T06:09:16;20.80;53.50
18085;DHT22;9169;44.492;11.372;2022-10-16T06:11:43;20.80;53.60
18085;DHT22;9169;44.492;11.372;2022-10-16T06:14:10;20.80;53.70
18085;DHT22;9169;44.492;11.372;2022-10-16T06:16:37;20.80;53.80
18085;DHT22;9169;44.492;11.372;2022-10-16T06:19:04;20.80;53.70
18085;DHT22;9169;44.492;11.372;2022-10-16T06:21:33;20.80;53.80
18085;DHT22;9169;44.492;11.372;2022-10-16T06:24:00;20.90;53.80
18085;DHT22;9169;44.492;11.372;2022-10-16T06:26:30;20.90;53.80
18085;DHT22;9169;44.492;11.372;2022-10-16T06:28:58;20.90;53.90
18085;DHT22;9169;44.492;11.372;2022-10-16T06:31:26;20.90;53.90
18085;DHT22;9169;44.492;11.372;2022-10-16T06:33:57;20.90;53.90
18085;DHT22;9169;44.492;11.372;2022-10-16T06:36:24;20.90;53.90
18085;DHT22;9169;44.492;11.372;2022-10-16T06:38:52;21.00;54.00
18085;DHT22;9169;44.492;11.372;2022-10-16T06:41:20;20.90;53.80
18085;DHT22;9169;44.492;11.372;2022-10-16T06:43:49;21.00;54.00
18085;DHT22;9169;44.492;11.372;2022-10-16T06:46:20;21.00;54.00
18085;DHT22;9169;44.492;11.372;2022-10-16T06:48:47;21.00;54.00
18085;DHT22;9169;44.492;11.372;2022-10-16T06:51:16;21.10;54.20
18085;DHT22;9169;44.492;11.372;2022-10-16T06:53:45;21.10;54.20
18085;DHT22;9169;44.492;11.372;2022-10-16T06:56:16;21.10;54.30
18085;DHT22;9169;44.492;11.372;2022-10-16T06:58:44;21.10;54.20
18085;DHT22;9169;44.492;11.372;2022-10-16T07:01:13;21.10;54.10
18085;DHT22;9169;44.492;11.372;2022-10-16T07:03:42;21.20;54.20
18085;DHT22;9169;44.492;11.372;2022-10-16T07:06:12;21.20;54.20
18085;DHT22;9169;44.492;11.372;2022-10-16T07:08:40;21.20;54.10
18085;DHT22;9169;44.492;11.372;2022-10-16T07:11:09;21.20;54.10
18085;DHT22;9169;44.492;11.372;2022-10-16T07:13:37;21.20;54.10
18085;DHT22;9169;44.492;11.372;2022-10-16T07:16:05;21.30;54.10
18085;DHT22;9169;44.492;11.372;2022-10-16T07:18:34;21.30;54.10
18085;DHT22;9169;44.492;11.372;2022-10-16T07:21:06;21.40;54.20
18085;DHT22;9169;44.492;11.372;2022-10-16T07:23:33;21.40;54.00
18085;DHT22;9169;44.492;11.372;2022-10-16T07:26:00;21.40;54.10
18085;DHT22;9169;44.492;11.372;2022-10-16T07:28:27;21.50;54.50
18085;DHT22;9169;44.492;11.372;2022-10-16T07:30:55;21.70;55.10
18085;DHT22;9169;44.492;11.372;2022-10-16T07:33:22;22.00;55.50
18085;DHT22;9169;44.492;11.372;2022-10-16T07:35:51;22.20;55.20
18085;DHT22;9169;44.492;11.372;2022-10-16T07:38:19;22.30;54.50
18085;DHT22;9169;44.492;11.372;2022-10-16T07:40:46;22.40;53.90
18085;DHT22;9169;44.492;11.372;2022-10-16T07:43:14;22.40;53.60
18085;DHT22;9169;44.492;11.372;2022-10-16T07:45:48;22.40;53.30
18085;DHT22;9169;44.492;11.372;2022-10-16T07:48:15;22.40;53.10
18085;DHT22;9169;44.492;11.372;2022-10-16T07:50:43;22.40;53.00
18085;DHT22;9169;44.492;11.372;2022-10-16T07:53:11;22.40;52.90
18085;DHT22;9169;44.492;11.372;2022-10-16T07:55:38;22.40;52.90
18085;DHT22;9169;44.492;11.372;2022-10-16T07:58:06;22.50;52.90
18085;DHT22;9169;44.492;11.372;2022-10-16T08:00:33;22.50;52.90
18085;DHT22;9169;44.492;11.372;2022-10-16T08:03:00;22.60;52.80
18085;DHT22;9169;44.492;11.372;2022-10-16T08:05:27;22.60;52.60
18085;DHT22;9169;44.492;11.372;2022-10-16T08:07:58;22.70;52.70
18085;DHT22;9169;44.492;11.372;2022-10-16T08:10:28;22.70;52.70
18085;DHT22;9169;44.492;11.372;2022-10-16T08:12:57;22.80;52.60
18085;DHT22;9169;44.492;11.372;2022-10-16T08:15:24;22.80;52.40
18085;DHT22;9169;44.492;11.372;2022-10-16T08:17:58;22.90;52.20
18085;DHT22;9169;44.492;11.372;2022-10-16T08:20:26;22.90;52.00
18085;DHT22;9169;44.492;11.372;2022-10-16T08:22:53;22.90;51.90
18085;DHT22;9169;44.492;11.372;2022-10-16T08:25:21;23.00;52.10
18085;DHT22;9169;44.492;11.372;2022-10-16T08:27:50;23.00;52.00
18085;DHT22;9169;44.492;11.372;2022-10-16T08:30:18;23.00;52.00
18085;DHT22;9169;44.492;11.372;2022-10-16T08:32:45;23.10;52.10
18085;DHT22;9169;44.492;11.372;2022-10-16T08:35:13;23.10;51.90
18085;DHT22;9169;44.492;11.372;2022-10-16T08:37:40;23.10;51.90
18085;DHT22;9169;44.492;11.372;2022-10-16T08:40:17;23.20;51.90
18085;DHT22;9169;44.492;11.372;2022-10-16T08:43:06;23.20;51.40
18085;DHT22;9169;44.492;11.372;2022-10-16T08:45:48;23.20;51.10
18085;DHT22;9169;44.492;11.372;2022-10-16T08:48:20;23.20;51.00
18085;DHT22;9169;44.492;11.372;2022-10-16T08:50:51;23.30;51.00
18085;DHT22;9169;44.492;11.372;2022-10-16T08:53:24;23.30;51.00
18085;DHT22;9169;44.492;11.372;2022-10-16T08:55:53;23.30;50.90
18085;DHT22;9169;44.492;11.372;2022-10-16T08:58:23;23.40;51.10
18085;DHT22;9169;44.492;11.372;2022-10-16T09:00:55;23.40;51.00
18085;DHT22;9169;44.492;11.372;2022-10-16T09:03:32;23.40;51.00
18085;DHT22;9169;44.492;11.372;2022-10-16T09:06:15;23.50;51.00
18085;DHT22;9169;44.492;11.372;2022-10-16T09:08:50;23.50;50.80
18085;DHT22;9169;44.492;11.372;2022-10-16T09:11:25;23.60;50.80
18085;DHT22;9169;44.492;11.372;2022-10-16T09:14:02;23.70;50.90
18085;DHT22;9169;44.492;11.372;2022-10-16T09:16:34;23.90;51.30
18085;DHT22;9169;44.492;11.372;2022-10-16T09:19:10;24.20;51.80
18085;DHT22;9169;44.492;11.372;2022-10-16T09:21:42;24.70;51.80
18085;DHT22;9169;44.492;11.372;2022-10-16T09:24:11;25.20;51.20
18085;DHT22;9169;44.492;11.372;2022-10-16T09:26:40;25.70;50.90
18085;DHT22;9169;44.492;11.372;2022-10-16T09:29:10;26.00;50.40
18085;DHT22;9169;44.492;11.372;2022-10-16T09:31:38;26.50;50.10
18085;DHT22;9169;44.492;11.372;2022-10-16T09:34:05;27.00;49.70
18085;DHT22;9169;44.492;11.372;2022-10-16T09:36:40;27.60;49.10
18085;DHT22;9169;44.492;11.372;2022-10-16T09:39:10;27.90;48.20
18085;DHT22;9169;44.492;11.372;2022-10-16T09:41:39;28.30;47.80
18085;DHT22;9169;44.492;11.372;2022-10-16T09:44:18;28.60;46.70
18085;DHT22;9169;44.492;11.372;2022-10-16T09:46:45;29.00;46.00
18085;DHT22;9169;44.492;11.372;2022-10-16T09:49:21;29.30;45.90
18085;DHT22;9169;44.492;11.372;2022-10-16T09:51:50;29.60;44.60
18085;DHT22;9169;44.492;11.372;2022-10-16T09:54:20;29.90;44.60
18085;DHT22;9169;44.492;11.372;2022-10-16T09:56:48;30.20;44.10
18085;DHT22;9169;44.492;11.372;2022-10-16T09:59:20;30.50;43.20
18085;DHT22;9169;44.492;11.372;2022-10-16T10:01:50;30.70;42.30
18085;DHT22;9169;44.492;11.372;2022-10-16T10:04:19;30.70;41.50
18085;DHT22;9169;44.492;11.372;2022-10-16T10:06:48;30.60;40.90
18085;DHT22;9169;44.492;11.372;2022-10-16T10:09:18;30.50;41.00
18085;DHT22;9169;44.492;11.372;2022-10-16T10:11:50;30.40;40.90
18085;DHT22;9169;44.492;11.372;2022-10-16T10:14:22;30.20;41.20
18085;DHT22;9169;44.492;11.372;2022-10-16T10:16:51;29.90;41.20
18085;DHT22;9169;44.492;11.372;2022-10-16T10:19:21;29.70;41.10
18085;DHT22;9169;44.492;11.372;2022-10-16T10:21:48;29.40;41.10
18085;DHT22;9169;44.492;11.372;2022-10-16T10:24:18;29.20;41.40
18085;DHT22;9169;44.492;11.372;2022-10-16T10:26:52;29.00;41.50
18085;DHT22;9169;44.492;11.372;2022-10-16T10:29:42;28.80;41.60
18085;DHT22;9169;44.492;11.372;2022-10-16T10:32:20;28.60;42.00
18085;DHT22;9169;44.492;11.372;2022-10-16T10:35:07;28.40;41.80
18085;DHT22;9169;44.492;11.372;2022-10-16T10:37:51;28.20;42.10
18085;DHT22;9169;44.492;11.372;2022-10-16T10:40:30;28.10;42.20
18085;DHT22;9169;44.492;11.372;2022-10-16T10:43:06;28.00;42.40
18085;DHT22;9169;44.492;11.372;2022-10-16T10:45:42;27.90;42.50
18085;DHT22;9169;44.492;11.372;2022-10-16T10:48:20;27.80;42.70
18085;DHT22;9169;44.492;11.372;2022-10-16T10:50:50;27.70;42.70
18085;DHT22;9169;44.492;11.372;2022-10-16T10:53:29;27.70;42.60
18085;DHT22;9169;44.492;11.372;2022-10-16T10:56:10;27.60;42.80
18085;DHT22;9169;44.492;11.372;2022-10-16T10:58:57;27.50;43.30
18085;DHT22;9169;44.492;11.372;2022-10-16T11:01:32;27.50;43.20
18085;DHT22;9169;44.492;11.372;2022-10-16T11:04:20;27.50;43.90
18085;DHT22;9169;44.492;11.372;2022-10-16T11:06:56;27.50;43.70
18085;DHT22;9169;44.492;11.372;2022-10-16T11:09:26;27.50;43.90
18085;DHT22;9169;44.492;11.372;2022-10-16T11:11:58;27.50;43.40
18085;DHT22;9169;44.492;11.372;2022-10-16T11:14:29;27.40;43.20
18085;DHT22;9169;44.492;11.372;2022-10-16T11:17:04;27.40;43.10
18085;DHT22;9169;44.492;11.372;2022-10-16T11:19:37;27.40;43.30
18085;DHT22;9169;44.492;11.372;2022-10-16T11:22:11;27.40;43.80
18085;DHT22;9169;44.492;11.372;2022-10-16T11:24:45;27.40;43.30
18085;DHT22;9169;44.492;11.372;2022-10-16T11:27:16;27.40;43.50
18085;DHT22;9169;44.492;11.372;2022-10-16T11:29:50;27.50;44.00
18085;DHT22;9169;44.492;11.372;2022-10-16T11:32:27;27.50;43.60
18085;DHT22;9169;44.492;11.372;2022-10-16T11:35:01;27.50;43.40
18085;DHT22;9169;44.492;11.372;2022-10-16T11:37:32;27.50;43.10
18085;DHT22;9169;44.492;11.372;2022-10-16T11:40:16;27.50;43.10
18085;DHT22;9169;44.492;11.372;2022-10-16T11:42:50;27.50;42.60
18085;DHT22;9169;44.492;11.372;2022-10-16T11:45:26;27.50;43.00
18085;DHT22;9169;44.492;11.372;2022-10-16T11:48:00;27.50;42.60
18085;DHT22;9169;44.492;11.372;2022-10-16T11:50:33;27.50;43.20
18085;DHT22;9169;44.492;11.372;2022-10-16T11:53:04;27.50;42.90
18085;DHT22;9169;44.492;11.372;2022-10-16T11:55:40;27.50;42.80
18085;DHT22;9169;44.492;11.372;2022-10-16T11:58:14;27.50;43.20
18085;DHT22;9169;44.492;11.372;2022-10-16T12:00:47;27.50;42.90
18085;DHT22;9169;44.492;11.372;2022-10-16T12:03:26;27.50;42.90
18085;DHT22;9169;44.492;11.372;2022-10-16T12:06:14;27.50;42.60
18085;DHT22;9169;44.492;11.372;2022-10-16T12:08:46;27.50;42.90
18085;DHT22;9169;44.492;11.372;2022-10-16T12:11:34;27.50;42.90
18085;DHT22;9169;44.492;11.372;2022-10-16T12:14:07;27.40;42.70
18085;DHT22;9169;44.492;11.372;2022-10-16T12:16:52;27.40;42.90
18085;DHT22;9169;44.492;11.372;2022-10-16T12:19:22;27.40;43.00
18085;DHT22;9169;44.492;11.372;2022-10-16T12:21:51;27.40;42.70
18085;DHT22;9169;44.492;11.372;2022-10-16T12:24:32;27.50;42.80
18085;DHT22;9169;44.492;11.372;2022-10-16T12:27:00;27.50;42.60
18085;DHT22;9169;44.492;11.372;2022-10-16T12:29:33;27.60;42.70
18085;DHT22;9169;44.492;11.372;2022-10-16T12:32:02;27.70;42.60
18085;DHT22;9169;44.492;11.372;2022-10-16T12:34:38;27.70;42.60
18085;DHT22;9169;44.492;11.372;2022-10-16T12:37:13;27.80;42.50
18085;DHT22;9169;44.492;11.372;2022-10-16T12:39:41;27.90;42.40
18085;DHT22;9169;44.492;11.372;2022-10-16T12:42:22;28.10;43.00
18085;DHT22;9169;44.492;11.372;2022-10-16T12:44:50;28.60;43.20
18085;DHT22;9169;44.492;11.372;2022-10-16T12:47:22;29.20;43.60
18085;DHT22;9169;44.492;11.372;2022-10-16T12:49:52;29.80;42.60
18085;DHT22;9169;44.492;11.372;2022-10-16T12:52:27;30.30;42.30
18085;DHT22;9169;44.492;11.372;2022-10-16T12:54:56;30.60;40.70
18085;DHT22;9169;44.492;11.372;2022-10-16T12:57:35;30.60;40.40
18085;DHT22;9169;44.492;11.372;2022-10-16T13:00:13;30.50;39.50
18085;DHT22;9169;44.492;11.372;2022-10-16T13:03:11;30.30;39.80
18085;DHT22;9169;44.492;11.372;2022-10-16T13:05:58;30.20;39.60
18085;DHT22;9169;44.492;11.372;2022-10-16T13:08:45;30.10;39.20
18085;DHT22;9169;44.492;11.372;2022-10-16T13:11:26;29.90;39.30
18085;DHT22;9169;44.492;11.372;2022-10-16T13:14:10;29.80;39.40
18085;DHT22;9169;44.492;11.372;2022-10-16T13:16:49;29.60;39.30
18085;DHT22;9169;44.492;11.372;2022-10-16T13:19:24;29.50;40.60
18085;DHT22;9169;44.492;11.372;2022-10-16T13:22:02;29.50;40.30
18085;DHT22;9169;44.492;11.372;2022-10-16T13:24:42;29.40;40.00
18085;DHT22;9169;44.492;11.372;2022-10-16T13:27:21;29.30;40.50
18085;DHT22;9169;44.492;11.372;2022-10-16T13:29:54;29.30;41.60
18085;DHT22;9169;44.492;11.372;2022-10-16T13:32:27;29.40;42.00
18085;DHT22;9169;44.492;11.372;2022-10-16T13:34:54;29.70;41.40
18085;DHT22;9169;44.492;11.372;2022-10-16T13:37:24;29.90;41.40
18085;DHT22;9169;44.492;11.372;2022-10-16T13:39:51;30.20;40.30
18085;DHT22;9169;44.492;11.372;2022-10-16T13:42:29;30.20;40.20
18085;DHT22;9169;44.492;11.372;2022-10-16T13:44:56;30.30;40.60
18085;DHT22;9169;44.492;11.372;2022-10-16T13:47:24;30.30;40.70
18085;DHT22;9169;44.492;11.372;2022-10-16T13:50:00;30.30;39.90
18085;DHT22;9169;44.492;11.372;2022-10-16T13:52:29;30.30;40.00
18085;DHT22;9169;44.492;11.372;2022-10-16T13:54:56;30.20;39.60
18085;DHT22;9169;44.492;11.372;2022-10-16T13:57:24;30.20;40.00
18085;DHT22;9169;44.492;11.372;2022-10-16T13:59:52;30.10;40.20
18085;DHT22;9169;44.492;11.372;2022-10-16T14:02:25;30.00;40.20
18085;DHT22;9169;44.492;11.372;2022-10-16T14:04:53;29.90;39.90
18085;DHT22;9169;44.492;11.372;2022-10-16T14:07:24;29.80;39.70
18085;DHT22;9169;44.492;11.372;2022-10-16T14:09:54;29.70;39.50
18085;DHT22;9169;44.492;11.372;2022-10-16T14:12:22;29.60;40.10
18085;DHT22;9169;44.492;11.372;2022-10-16T14:14:51;29.50;40.10
18085;DHT22;9169;44.492;11.372;2022-10-16T14:17:22;29.50;39.70
18085;DHT22;9169;44.492;11.372;2022-10-16T14:19:52;29.30;39.80
18085;DHT22;9169;44.492;11.372;2022-10-16T14:22:30;29.30;39.90
18085;DHT22;9169;44.492;11.372;2022-10-16T14:24:59;29.20;40.30
18085;DHT22;9169;44.492;11.372;2022-10-16T14:27:30;29.10;40.50
18085;DHT22;9169;44.492;11.372;2022-10-16T14:30:13;29.10;40.40
18085;DHT22;9169;44.492;11.372;2022-10-16T14:32:41;29.00;40.80
18085;DHT22;9169;44.492;11.372;2022-10-16T14:35:23;29.00;40.90
18085;DHT22;9169;44.492;11.372;2022-10-16T14:37:52;28.80;40.50
18085;DHT22;9169;44.492;11.372;2022-10-16T14:40:23;28.70;40.70
18085;DHT22;9169;44.492;11.372;2022-10-16T14:42:50;28.60;40.70
18085;DHT22;9169;44.492;11.372;2022-10-16T14:45:20;28.50;41.60
18085;DHT22;9169;44.492;11.372;2022-10-16T14:47:50;28.40;41.10
18085;DHT22;9169;44.492;11.372;2022-10-16T14:50:17;28.40;40.70
18085;DHT22;9169;44.492;11.372;2022-10-16T14:52:44;28.30;41.00
18085;DHT22;9169;44.492;11.372;2022-10-16T14:55:12;28.20;41.20
18085;DHT22;9169;44.492;11.372;2022-10-16T14:57:40;28.10;41.30
18085;DHT22;9169;44.492;11.372;2022-10-16T15:00:15;28.10;41.40
18085;DHT22;9169;44.492;11.372;2022-10-16T15:02:42;28.00;41.30
18085;DHT22;9169;44.492;11.372;2022-10-16T15:05:13;28.00;41.30
18085;DHT22;9169;44.492;11.372;2022-10-16T15:07:41;27.90;41.50
18085;DHT22;9169;44.492;11.372;2022-10-16T15:10:08;27.90;41.60
18085;DHT22;9169;44.492;11.372;2022-10-16T15:12:36;27.80;41.40
18085;DHT22;9169;44.492;11.372;2022-10-16T15:15:27;27.80;41.30
18085;DHT22;9169;44.492;11.372;2022-10-16T15:17:56;27.70;41.60
18085;DHT22;9169;44.492;11.372;2022-10-16T15:20:27;27.70;41.60
18085;DHT22;9169;44.492;11.372;2022-10-16T15:22:55;27.70;41.70
18085;DHT22;9169;44.492;11.372;2022-10-16T15:25:33;27.60;41.70
18085;DHT22;9169;44.492;11.372;2022-10-16T15:28:02;27.50;41.60
18085;DHT22;9169;44.492;11.372;2022-10-16T15:30:31;27.50;41.60
18085;DHT22;9169;44.492;11.372;2022-10-16T15:32:58;27.40;41.70
18085;DHT22;9169;44.492;11.372;2022-10-16T15:35:26;27.40;42.00
18085;DHT22;9169;44.492;11.372;2022-10-16T15:37:53;27.40;42.10
18085;DHT22;9169;44.492;11.372;2022-10-16T15:40:20;27.30;42.20
18085;DHT22;9169;44.492;11.372;2022-10-16T15:42:48;27.30;41.90
18085;DHT22;9169;44.492;11.372;2022-10-16T15:45:16;27.20;42.10
18085;DHT22;9169;44.492;11.372;2022-10-16T15:47:46;27.20;42.30
18085;DHT22;9169;44.492;11.372;2022-10-16T15:50:14;27.10;42.10
18085;DHT22;9169;44.492;11.372;2022-10-16T15:52:42;27.10;42.40
18085;DHT22;9169;44.492;11.372;2022-10-16T15:55:11;27.00;42.30